Time;durP1;ratioP1;P1;durP2;ratioP2;P2;SDS_P1;SDS_P2;PMS_P1;PMS_P2;Temp;Humidity;BMP_temperature;BMP_pressure;BME280_temperature;BME280_humidity;BME280_pressure;Samples;Min_cycle;Max_cycle;Signal;HPM_P1;HPM_P2
2023/08/16 00:02:23;;;;;;;6.30;4.90;;;19.20;99.90;;;;;;5053828;28;20198;-87
2023/08/16 00:04:48;;;;;;;8.50;5.28;;;19.20;99.90;;;;;;5052108;28;20207;-87
2023/08/16 00:07:14;;;;;;;8.50;5.00;;;19.10;99.90;;;;;;5035350;28;20226;-87
2023/08/16 00:09:40;;;;;;;10.18;5.32;;;19.10;99.90;;;;;;5053478;28;20210;-84
2023/08/16 00:12:06;;;;;;;6.72;4.60;;;19.10;99.90;;;;;;5052268;28;20306;-88
2023/08/16 00:14:32;;;;;;;7.93;4.90;;;19.10;99.90;;;;;;5035769;28;20564;-87
2023/08/16 00:16:58;;;;;;;7.10;4.72;;;;;;;;;;5052594;28;20273;-86
2023/08/16 00:19:24;;;;;;;11.90;5.55;;;19.10;99.90;;;;;;5053912;28;20175;-87
2023/08/16 00:21:50;;;;;;;8.95;5.20;;;19.10;99.90;;;;;;5053479;28;20313;-86
2023/08/16 00:24:16;;;;;;;5.50;4.40;;;19.10;99.90;;;;;;5053485;28;20704;-86
2023/08/16 00:26:41;;;;;;;8.25;5.22;;;19.10;99.90;;;;;;5051956;28;20648;-86
2023/08/16 00:29:07;;;;;;;6.22;4.75;;;19.00;99.90;;;;;;5051980;28;20183;-94
2023/08/16 00:31:33;;;;;;;8.07;4.80;;;19.00;99.90;;;;;;5053404;28;20214;-87
2023/08/16 00:33:58;;;;;;;6.50;4.78;;;19.00;99.90;;;;;;5052152;28;20247;-87
2023/08/16 00:36:24;;;;;;;8.55;4.78;;;19.00;99.90;;;;;;5035385;28;20188;-87
2023/08/16 00:38:49;;;;;;;6.30;4.70;;;19.00;99.90;;;;;;5035636;28;20222;-87
2023/08/16 00:41:15;;;;;;;13.32;4.55;;;19.00;99.90;;;;;;5052142;28;20187;-87
2023/08/16 00:43:41;;;;;;;6.43;4.78;;;19.10;99.90;;;;;;5035623;28;20637;-87
2023/08/16 00:46:10;;;;;;;8.63;5.30;;;19.10;99.90;;;;;;5035294;28;20188;-87
2023/08/16 00:48:38;;;;;;;8.85;5.13;;;19.10;99.90;;;;;;5056219;28;20207;-87
2023/08/16 00:51:04;;;;;;;5.25;4.45;;;;;;;;;;5055831;28;20310;-86
2023/08/16 00:53:31;;;;;;;6.22;4.55;;;19.10;99.90;;;;;;5039119;28;20266;-86
2023/08/16 00:56:01;;;;;;;6.80;4.60;;;19.10;99.90;;;;;;5055551;28;20176;-86
2023/08/16 00:58:27;;;;;;;7.90;5.40;;;19.00;99.90;;;;;;5057148;28;20160;-87
2023/08/16 01:00:53;;;;;;;9.65;4.75;;;19.00;99.90;;;;;;5039256;28;20180;-86
2023/08/16 01:03:19;;;;;;;9.98;4.90;;;19.00;99.90;;;;;;5056898;28;20207;-86
2023/08/16 01:05:45;;;;;;;5.57;4.28;;;18.90;99.90;;;;;;5056839;28;20552;-87
2023/08/16 01:08:11;;;;;;;9.10;5.47;;;18.50;99.90;;;;;;5057160;28;20195;-86
2023/08/16 01:10:52;;;;;;;10.65;5.30;;;19.00;99.90;;;;;;5055405;28;20176;-86
2023/08/16 01:13:32;;;;;;;6.82;4.57;;;18.90;99.90;;;;;;5055277;28;20269;-86
2023/08/16 01:15:59;;;;;;;7.22;4.88;;;19.00;99.90;;;;;;5059324;28;21307;-87
2023/08/16 01:18:29;;;;;;;7.20;4.90;;;19.00;99.90;;;;;;5076564;28;20168;-87
2023/08/16 01:20:55;;;;;;;7.05;5.18;;;18.90;99.90;;;;;;5076848;28;20182;-87
2023/08/16 01:23:35;;;;;;;11.10;5.50;;;19.00;99.90;;;;;;5058593;28;20222;-87
2023/08/16 01:26:12;;;;;;;10.57;5.20;;;19.00;99.90;;;;;;5076655;28;20170;-87
2023/08/16 01:28:39;;;;;;;8.05;4.90;;;19.00;99.90;;;;;;5058327;28;20183;-87
2023/08/16 01:31:05;;;;;;;10.40;5.43;;;19.10;99.90;;;;;;5076133;28;20182;-87
2023/08/16 01:33:31;;;;;;;6.65;5.03;;;19.10;99.90;;;;;;5058439;28;20211;-87
2023/08/16 01:35:57;;;;;;;7.45;5.45;;;19.10;99.90;;;;;;5058452;28;20198;-87
2023/08/16 01:38:25;;;;;;;6.97;5.00;;;19.10;99.90;;;;;;5076008;28;20171;-87
2023/08/16 01:41:01;;;;;;;7.70;4.60;;;19.20;99.90;;;;;;5041885;28;20699;-87
2023/08/16 01:43:29;;;;;;;9.20;5.30;;;19.20;99.90;;;;;;5076499;28;20187;-87
2023/08/16 01:45:56;;;;;;;8.23;4.47;;;19.20;99.90;;;;;;5076104;28;20186;-88
2023/08/16 01:48:23;;;;;;;8.82;4.97;;;19.10;99.90;;;;;;5058006;28;20179;-88
2023/08/16 01:50:49;;;;;;;8.23;5.05;;;19.10;99.90;;;;;;5076013;28;20179;-87
2023/08/16 01:53:15;;;;;;;9.00;5.40;;;19.20;99.90;;;;;;5075847;28;20203;-87
2023/08/16 01:55:41;;;;;;;6.97;4.75;;;19.10;99.90;;;;;;5058029;28;20175;-87
2023/08/16 01:58:07;;;;;;;8.98;5.70;;;19.10;99.90;;;;;;5057695;28;20199;-87
2023/08/16 02:00:33;;;;;;;10.20;4.97;;;19.10;99.90;;;;;;5056928;28;20187;-87
2023/08/16 02:02:59;;;;;;;9.57;5.60;;;19.10;99.90;;;;;;5075755;28;20557;-87
2023/08/16 02:05:24;;;;;;;8.07;5.45;;;19.00;99.90;;;;;;5024789;28;20211;-87
2023/08/16 02:07:50;;;;;;;10.23;6.13;;;19.00;99.90;;;;;;5057452;28;20305;-87
2023/08/16 02:10:16;;;;;;;9.30;5.00;;;19.00;99.90;;;;;;5057862;28;20175;-87
2023/08/16 02:12:41;;;;;;;10.18;5.32;;;19.00;99.90;;;;;;5075447;28;20290;-87
2023/08/16 02:15:07;;;;;;;9.35;5.72;;;18.90;99.90;;;;;;5077170;28;20225;-87
2023/08/16 02:17:33;;;;;;;11.23;5.40;;;18.90;99.90;;;;;;5048481;28;20753;-86
2023/08/16 02:19:58;;;;;;;5.53;5.00;;;18.90;99.90;;;;;;5069338;28;20183;-87
2023/08/16 02:22:24;;;;;;;6.75;5.40;;;18.80;99.90;;;;;;5048279;28;20674;-91
2023/08/16 02:24:51;;;;;;;8.93;5.32;;;18.80;99.90;;;;;;5041696;28;20179;-86
2023/08/16 02:27:17;;;;;;;7.72;5.53;;;18.80;99.90;;;;;;5041048;28;20187;-87
2023/08/16 02:29:43;;;;;;;6.20;5.35;;;18.80;99.90;;;;;;5075361;28;20175;-87
2023/08/16 02:32:08;;;;;;;8.88;5.82;;;18.70;99.90;;;;;;5075391;28;20214;-87
2023/08/16 02:34:34;;;;;;;9.95;5.60;;;18.80;99.90;;;;;;5040804;28;20175;-87
2023/08/16 02:37:00;;;;;;;9.38;6.57;;;18.70;99.90;;;;;;5057283;28;20179;-87
2023/08/16 02:39:25;;;;;;;8.70;5.50;;;18.70;99.90;;;;;;5040238;28;20236;-86
2023/08/16 02:41:54;;;;;;;8.45;5.85;;;18.70;99.90;;;;;;5057232;28;20187;-86
2023/08/16 02:44:19;;;;;;;11.02;6.05;;;18.40;99.90;;;;;;5069615;28;20179;-87
2023/08/16 02:46:45;;;;;;;9.27;6.05;;;18.70;99.90;;;;;;5077404;28;20198;-87
2023/08/16 02:49:11;;;;;;;7.88;5.60;;;18.70;99.90;;;;;;5065175;28;20171;-87
2023/08/16 02:51:36;;;;;;;10.02;5.63;;;19.10;99.90;;;;;;5075159;28;20186;-87
2023/08/16 02:54:02;;;;;;;8.15;5.95;;;19.10;99.90;;;;;;5075027;28;20215;-88
2023/08/16 02:56:28;;;;;;;7.50;5.40;;;18.70;99.90;;;;;;5075334;28;20180;-86
2023/08/16 02:58:54;;;;;;;10.77;5.90;;;18.80;99.90;;;;;;5041023;28;20514;-87
2023/08/16 03:01:20;;;;;;;11.05;5.50;;;18.70;99.90;;;;;;5075733;28;20176;-87
2023/08/16 03:03:47;;;;;;;8.32;5.57;;;18.70;99.90;;;;;;5069720;28;20163;-86
2023/08/16 03:06:12;;;;;;;11.23;5.70;;;18.70;99.90;;;;;;5095164;28;20687;-86
2023/08/16 03:08:38;;;;;;;11.13;5.95;;;18.70;99.90;;;;;;5081921;28;20180;-86
2023/08/16 03:11:03;;;;;;;8.73;6.30;;;18.70;99.90;;;;;;5040134;28;20624;-87
2023/08/16 03:13:29;;;;;;;11.27;5.80;;;18.70;99.90;;;;;;5074440;28;20558;-87
2023/08/16 03:15:55;;;;;;;12.15;6.18;;;18.60;99.90;;;;;;5074273;28;20632;-87
2023/08/16 03:18:20;;;;;;;8.35;6.15;;;18.60;99.90;;;;;;5040115;28;20628;-86
2023/08/16 03:20:46;;;;;;;7.13;5.55;;;;;;;;;;5023168;28;20187;-86
2023/08/16 03:23:12;;;;;;;8.45;5.65;;;18.70;99.90;;;;;;5074155;28;20175;-86
2023/08/16 03:25:38;;;;;;;8.15;5.53;;;18.60;99.90;;;;;;5056313;28;20187;-87
2023/08/16 03:28:04;;;;;;;8.25;5.93;;;18.60;99.90;;;;;;5059144;28;20179;-90
2023/08/16 03:30:30;;;;;;;12.43;5.32;;;19.00;99.90;;;;;;5059729;28;20191;-91
2023/08/16 03:32:55;;;;;;;10.93;5.40;;;18.90;99.90;;;;;;5038841;28;20265;-91
2023/08/16 03:35:21;;;;;;;8.60;5.72;;;18.80;99.90;;;;;;5038966;28;20183;-89
2023/08/16 03:37:47;;;;;;;6.40;5.22;;;;;;;;;;5074611;28;20170;-90
2023/08/16 03:40:14;;;;;;;11.18;5.35;;;;;;;;;;5058845;28;20187;-90
2023/08/16 03:42:40;;;;;;;10.18;6.18;;;;;;;;;;5058815;28;20185;-89
2023/08/16 03:45:06;;;;;;;8.63;5.70;;;19.20;99.90;;;;;;5056270;28;20236;-90
2023/08/16 03:47:32;;;;;;;9.15;6.20;;;19.10;99.90;;;;;;5055411;28;20629;-90
2023/08/16 03:49:59;;;;;;;9.43;6.13;;;19.10;99.90;;;;;;5055119;28;20270;-89
2023/08/16 03:52:26;;;;;;;8.35;5.53;;;19.00;99.90;;;;;;5055405;28;20210;-89
2023/08/16 03:54:53;;;;;;;11.82;5.80;;;;;;;;;;5054923;28;20179;-89
2023/08/16 03:57:21;;;;;;;9.77;6.13;;;19.10;99.90;;;;;;5073339;28;20178;-89
2023/08/16 03:59:47;;;;;;;10.48;5.80;;;;;;;;;;5054797;28;20179;-89
2023/08/16 04:02:13;;;;;;;8.85;6.03;;;19.30;99.90;;;;;;5072944;28;20211;-90
2023/08/16 04:04:39;;;;;;;10.77;5.75;;;;;;;;;;5022212;28;20614;-90
2023/08/16 04:07:05;;;;;;;10.68;6.30;;;;;;;;;;5055153;28;20183;-90
2023/08/16 04:09:30;;;;;;;8.70;5.82;;;19.40;99.90;;;;;;5054319;28;20207;-90
2023/08/16 04:11:56;;;;;;;9.70;5.88;;;;;;;;;;5054927;28;20218;-89
2023/08/16 04:14:22;;;;;;;9.07;5.40;;;19.50;99.90;;;;;;5073702;28;20175;-90
2023/08/16 04:16:48;;;;;;;11.60;6.05;;;;;;;;;;5055421;28;20239;-90
2023/08/16 04:19:14;;;;;;;8.52;5.50;;;;;;;;;;5056602;28;20179;-89
2023/08/16 04:21:40;;;;;;;8.38;5.85;;;;;;;;;;5039314;28;20183;-89
2023/08/16 04:24:06;;;;;;;7.47;5.93;;;;;;;;;;5058684;28;20178;-89
2023/08/16 04:26:33;;;;;;;6.82;5.45;;;;;;;;;;5059196;28;20178;-89
2023/08/16 04:28:59;;;;;;;8.85;5.78;;;;;;;;;;5077103;28;20197;-91
2023/08/16 04:31:25;;;;;;;9.57;5.80;;;;;;;;;;5058974;28;20232;-89
2023/08/16 04:33:51;;;;;;;14.05;6.30;;;19.90;99.90;;;;;;5057479;28;20213;-90
2023/08/16 04:36:17;;;;;;;11.27;6.53;;;;;;;;;;5077065;28;20262;-90
2023/08/16 04:38:43;;;;;;;8.35;5.80;;;;;;;;;;5058850;28;20179;-90
2023/08/16 04:41:09;;;;;;;10.90;6.25;;;;;;;;;;5076878;28;20675;-91
2023/08/16 04:43:35;;;;;;;10.32;6.50;;;20.10;99.90;;;;;;5076807;28;20281;-90
2023/08/16 04:46:01;;;;;;;6.78;6.00;;;;;;;;;;5058223;28;20588;-90
2023/08/16 04:48:27;;;;;;;8.38;5.97;;;;;;;;;;5076382;28;20175;-88
2023/08/16 04:50:53;;;;;;;10.43;6.10;;;;;;;;;;5058573;28;20223;-89
2023/08/16 04:53:19;;;;;;;9.95;6.63;;;;;;;;;;5058446;28;20289;-88
2023/08/16 04:55:45;;;;;;;11.38;6.70;;;20.20;99.90;;;;;;5078673;28;20717;-89
2023/08/16 04:58:11;;;;;;;11.35;6.63;;;;;;;;;;5060516;28;20201;-91
2023/08/16 05:00:38;;;;;;;9.63;6.70;;;;;;;;;;5060701;28;20179;-89
2023/08/16 05:03:03;;;;;;;10.00;6.50;;;20.40;99.90;;;;;;5058920;28;20183;-84
2023/08/16 05:05:29;;;;;;;13.15;6.70;;;;;;;;;;5076888;28;20167;-84
2023/08/16 05:07:55;;;;;;;12.30;7.40;;;;;;;;;;5042658;28;20209;-85
2023/08/16 05:10:21;;;;;;;11.77;6.32;;;20.50;99.90;;;;;;5076748;28;20624;-84
2023/08/16 05:12:47;;;;;;;10.02;6.57;;;20.50;99.90;;;;;;5076680;28;20214;-84
2023/08/16 05:15:13;;;;;;;11.63;6.35;;;20.50;99.90;;;;;;5058769;28;20176;-84
2023/08/16 05:17:39;;;;;;;8.73;6.18;;;20.70;99.90;;;;;;5076959;28;20241;-85
2023/08/16 05:20:06;;;;;;;9.98;5.93;;;20.70;99.90;;;;;;5076494;28;20179;-85
2023/08/16 05:22:32;;;;;;;9.82;6.07;;;20.80;99.90;;;;;;5076676;28;20179;-85
2023/08/16 05:24:57;;;;;;;9.30;6.00;;;20.90;99.90;;;;;;5076570;28;20515;-85
2023/08/16 05:27:23;;;;;;;9.05;6.68;;;21.00;99.90;;;;;;5076510;28;20179;-85
2023/08/16 05:29:49;;;;;;;7.95;6.10;;;21.10;99.90;;;;;;5076399;28;20512;-85
2023/08/16 05:32:14;;;;;;;7.38;5.90;;;21.20;99.90;;;;;;5058339;28;20728;-85
2023/08/16 05:34:40;;;;;;;10.27;6.43;;;21.30;99.90;;;;;;5075264;28;20184;-85
2023/08/16 05:37:06;;;;;;;10.32;5.88;;;21.40;99.90;;;;;;5076103;28;20179;-85
2023/08/16 05:39:32;;;;;;;10.57;6.07;;;21.40;99.90;;;;;;5076227;28;20186;-85
2023/08/16 05:41:58;;;;;;;9.73;6.05;;;21.50;99.90;;;;;;5076191;28;20186;-85
2023/08/16 05:44:23;;;;;;;9.27;6.85;;;21.50;99.90;;;;;;5058146;28;20179;-85
2023/08/16 05:46:49;;;;;;;10.65;6.18;;;21.70;99.90;;;;;;5058246;28;20175;-85
2023/08/16 05:49:15;;;;;;;10.70;6.82;;;21.80;99.90;;;;;;5058210;28;20253;-86
2023/08/16 05:51:41;;;;;;;11.40;6.55;;;;;;;;;;5058065;28;20262;-86
2023/08/16 05:54:06;;;;;;;13.02;6.57;;;21.90;99.90;;;;;;5058078;28;20213;-86
2023/08/16 05:56:32;;;;;;;14.25;7.43;;;22.00;99.90;;;;;;5057824;28;20179;-85
2023/08/16 05:58:57;;;;;;;14.50;7.15;;;22.20;99.90;;;;;;5075377;28;20183;-88
2023/08/16 06:01:23;;;;;;;8.32;6.57;;;22.30;99.90;;;;;;5057762;28;20505;-86
2023/08/16 06:03:49;;;;;;;10.73;6.50;;;22.40;99.90;;;;;;5058093;28;20214;-86
2023/08/16 06:06:14;;;;;;;10.27;6.32;;;22.50;99.90;;;;;;5076160;28;20180;-87
2023/08/16 06:08:40;;;;;;;9.43;6.70;;;22.60;99.90;;;;;;5041379;28;20183;-87
2023/08/16 06:11:08;;;;;;;14.15;7.18;;;22.70;99.90;;;;;;5058438;28;20171;-86
2023/08/16 06:13:34;;;;;;;12.13;7.07;;;22.90;99.90;;;;;;5057673;28;20293;-86
2023/08/16 06:15:59;;;;;;;11.32;7.30;;;23.00;99.90;;;;;;5075433;28;20235;-87
2023/08/16 06:18:25;;;;;;;10.90;7.05;;;23.10;99.90;;;;;;5040538;28;20546;-88
2023/08/16 06:20:51;;;;;;;12.00;7.78;;;23.30;99.90;;;;;;5075969;28;20270;-87
2023/08/16 06:23:16;;;;;;;11.40;7.05;;;23.50;99.90;;;;;;5057210;28;20176;-87
2023/08/16 06:25:42;;;;;;;10.88;7.20;;;23.70;99.90;;;;;;5040352;28;20184;-88
2023/08/16 06:28:08;;;;;;;9.30;6.35;;;23.80;99.90;;;;;;5074622;28;20175;-87
2023/08/16 06:30:33;;;;;;;10.18;6.88;;;23.90;99.90;;;;;;5040164;28;20273;-85
2023/08/16 06:32:59;;;;;;;13.88;6.88;;;24.00;99.90;;;;;;5023619;28;20608;-86
2023/08/16 06:35:25;;;;;;;11.00;7.15;;;24.10;99.90;;;;;;5056884;28;20233;-87
2023/08/16 06:37:50;;;;;;;10.65;6.60;;;24.20;99.90;;;;;;5040100;28;20179;-87
2023/08/16 06:40:17;;;;;;;13.82;7.50;;;24.40;99.90;;;;;;5039906;28;20187;-88
2023/08/16 06:42:42;;;;;;;12.20;7.57;;;24.50;99.90;;;;;;5074412;28;20229;-86
2023/08/16 06:45:09;;;;;;;10.77;7.03;;;24.60;99.90;;;;;;5039256;28;20184;-89
2023/08/16 06:47:35;;;;;;;12.38;7.25;;;24.70;99.90;;;;;;5040548;28;20175;-88
2023/08/16 06:50:01;;;;;;;13.85;6.88;;;24.70;99.90;;;;;;5075569;28;20171;-85
2023/08/16 06:52:26;;;;;;;10.05;6.75;;;24.70;99.90;;;;;;5073595;28;20206;-86
2023/08/16 06:54:52;;;;;;;13.68;6.40;;;24.80;99.90;;;;;;5095732;28;20179;-87
2023/08/16 06:57:18;;;;;;;12.60;6.50;;;;;;;;;;5082066;28;20175;-88
2023/08/16 06:59:44;;;;;;;15.60;7.18;;;25.00;99.90;;;;;;5057076;28;20190;-88
2023/08/16 07:02:14;;;;;;;10.80;6.82;;;25.20;99.90;;;;;;5040113;28;20195;-87
2023/08/16 07:04:43;;;;;;;11.38;7.40;;;25.20;99.90;;;;;;5056706;28;20183;-88
2023/08/16 07:07:10;;;;;;;11.30;7.00;;;25.30;99.90;;;;;;5057945;28;20198;-86
2023/08/16 07:09:36;;;;;;;12.05;8.50;;;25.40;99.90;;;;;;5074038;28;20180;-87
2023/08/16 07:12:01;;;;;;;11.65;7.57;;;25.40;99.90;;;;;;5023260;28;20190;-88
2023/08/16 07:14:27;;;;;;;12.60;6.88;;;25.60;99.90;;;;;;5039532;28;20175;-86
2023/08/16 07:16:53;;;;;;;9.35;6.25;;;25.80;99.90;;;;;;5074066;28;20769;-88
2023/08/16 07:19:18;;;;;;;10.77;7.47;;;25.90;99.90;;;;;;5073918;28;20179;-87
2023/08/16 07:21:44;;;;;;;14.05;6.93;;;25.90;99.90;;;;;;5074501;28;20229;-88
2023/08/16 07:24:10;;;;;;;10.35;6.63;;;26.10;99.90;;;;;;5057263;28;20256;-87
2023/08/16 07:26:35;;;;;;;13.55;6.55;;;26.20;99.90;;;;;;5076223;28;20179;-88
2023/08/16 07:29:01;;;;;;;12.70;7.50;;;26.30;99.90;;;;;;5058136;28;20599;-87
2023/08/16 07:31:27;;;;;;;12.70;6.90;;;26.50;99.90;;;;;;5057634;28;20179;-88
2023/08/16 07:33:53;;;;;;;11.52;6.18;;;26.60;99.90;;;;;;5056712;28;20199;-87
2023/08/16 07:36:18;;;;;;;13.07;6.05;;;26.80;99.90;;;;;;5073637;28;20574;-87
2023/08/16 07:38:46;;;;;;;13.75;6.40;;;27.00;99.90;;;;;;5056152;28;20186;-89
2023/08/16 07:41:12;;;;;;;9.43;5.90;;;27.00;99.90;;;;;;5055989;28;20175;-88
2023/08/16 07:43:38;;;;;;;8.88;6.18;;;27.10;98.60;;;;;;5073644;28;20186;-89
2023/08/16 07:46:03;;;;;;;9.38;5.75;;;27.20;98.00;;;;;;5039287;28;20289;-89
2023/08/16 07:48:29;;;;;;;7.75;5.80;;;27.40;97.10;;;;;;5073638;28;20176;-88
2023/08/16 07:50:55;;;;;;;10.93;6.05;;;27.50;98.00;;;;;;5056066;28;20655;-89
2023/08/16 07:53:22;;;;;;;11.50;5.90;;;27.60;97.40;;;;;;5039650;28;20235;-89
2023/08/16 07:55:48;;;;;;;8.82;5.53;;;27.70;96.50;;;;;;5073922;28;20183;-90
2023/08/16 07:58:15;;;;;;;8.30;5.55;;;27.90;96.60;;;;;;5055022;28;20178;-90
2023/08/16 08:00:42;;;;;;;8.55;5.10;;;28.00;95.30;;;;;;5056065;28;20221;-87
2023/08/16 08:03:09;;;;;;;9.23;5.30;;;28.10;93.20;;;;;;5039487;28;20187;-87
2023/08/16 08:05:35;;;;;;;7.63;5.07;;;28.20;93.60;;;;;;5088736;28;20163;-87
2023/08/16 08:08:01;;;;;;;7.10;5.25;;;29.00;95.90;;;;;;5063527;28;20173;-90
2023/08/16 08:10:29;;;;;;;10.57;4.78;;;28.40;91.80;;;;;;5088240;28;20182;-88
2023/08/16 08:12:55;;;;;;;5.63;4.65;;;28.50;91.00;;;;;;5048776;28;20234;-89
2023/08/16 08:15:20;;;;;;;9.48;4.88;;;28.60;90.00;;;;;;5084247;28;20179;-88
2023/08/16 08:17:47;;;;;;;9.82;5.88;;;28.70;88.90;;;;;;5026787;28;20235;-88
2023/08/16 08:20:14;;;;;;;5.78;4.55;;;28.70;89.50;;;;;;5061664;28;20175;-90
2023/08/16 08:22:40;;;;;;;9.57;5.25;;;28.70;89.30;;;;;;5096805;28;20193;-90
2023/08/16 08:25:07;;;;;;;7.20;4.82;;;28.70;88.50;;;;;;5095168;28;20191;-89
2023/08/16 08:27:34;;;;;;;6.82;4.50;;;;;;;;;;5045589;28;20241;-87
2023/08/16 08:30:00;;;;;;;6.15;4.03;;;28.90;86.60;;;;;;5057620;28;20261;-90
2023/08/16 08:32:28;;;;;;;7.30;4.13;;;28.90;86.90;;;;;;5073969;28;20209;-88
2023/08/16 08:34:53;;;;;;;4.95;4.00;;;28.80;87.60;;;;;;5055995;28;20198;-88
2023/08/16 08:37:20;;;;;;;6.03;4.20;;;;;;;;;;5055646;28;20632;-91
2023/08/16 08:39:45;;;;;;;5.80;4.05;;;28.90;89.40;;;;;;5038989;28;20217;-88
2023/08/16 08:42:12;;;;;;;5.88;4.47;;;28.80;85.60;;;;;;5038677;28;20598;-88
2023/08/16 08:44:38;;;;;;;5.07;4.32;;;28.70;86.60;;;;;;5038703;28;20263;-88
2023/08/16 08:47:06;;;;;;;6.47;4.32;;;28.70;83.80;;;;;;5072637;28;20175;-87
2023/08/16 08:49:34;;;;;;;8.80;5.30;;;28.80;92.30;;;;;;5038538;28;20183;-88
2023/08/16 08:52:02;;;;;;;5.95;4.30;;;28.70;87.10;;;;;;5054985;28;20179;-88
2023/08/16 08:54:28;;;;;;;6.93;4.88;;;28.60;85.80;;;;;;5072786;28;20187;-89
2023/08/16 08:56:55;;;;;;;10.88;5.55;;;28.60;88.00;;;;;;5072658;28;20214;-88
2023/08/16 08:59:21;;;;;;;8.40;4.28;;;28.40;87.50;;;;;;5074415;28;20175;-89
2023/08/16 09:01:49;;;;;;;10.32;6.63;;;28.30;86.30;;;;;;5055618;28;20290;-88
2023/08/16 09:04:15;;;;;;;5.85;5.03;;;28.20;88.60;;;;;;5039994;28;20187;-88
2023/08/16 09:06:45;;;;;;;7.32;4.95;;;28.20;88.80;;;;;;5056075;28;20569;-89
2023/08/16 09:09:12;;;;;;;6.88;4.75;;;28.10;90.10;;;;;;5075288;28;20172;-88
2023/08/16 09:11:38;;;;;;;8.73;5.68;;;28.00;90.40;;;;;;5076509;28;20206;-89
2023/08/16 09:14:04;;;;;;;9.23;4.25;;;27.90;88.70;;;;;;5058294;28;20675;-88
2023/08/16 09:16:30;;;;;;;7.82;4.65;;;27.90;86.40;;;;;;5057862;28;20254;-88
2023/08/16 09:18:55;;;;;;;8.00;4.47;;;27.90;87.70;;;;;;5076065;28;20503;-88
2023/08/16 09:21:28;;;;;;;6.20;4.13;;;27.80;84.30;;;;;;5058362;28;20539;-88
2023/08/16 09:23:58;;;;;;;6.45;4.32;;;27.80;88.20;;;;;;5059482;28;20221;-88
2023/08/16 09:26:27;;;;;;;6.80;4.95;;;27.80;84.40;;;;;;5076412;28;20171;-89
2023/08/16 09:28:59;;;;;;;7.47;4.60;;;28.00;82.70;;;;;;5076160;28;20535;-88
2023/08/16 09:31:29;;;;;;;5.53;4.38;;;28.10;83.20;;;;;;5058657;28;20179;-88
2023/08/16 09:33:55;;;;;;;6.13;3.80;;;28.20;80.80;;;;;;5065395;28;20682;-87
2023/08/16 09:36:21;;;;;;;9.80;5.95;;;28.30;85.00;;;;;;5063769;28;20187;-88
2023/08/16 09:38:48;;;;;;;8.23;4.88;;;28.60;83.80;;;;;;5058903;28;20175;-88
2023/08/16 09:41:16;;;;;;;5.70;4.20;;;28.90;81.10;;;;;;5080727;28;20163;-91
2023/08/16 09:43:42;;;;;;;7.35;4.97;;;29.10;80.20;;;;;;5083067;28;20226;-90
2023/08/16 09:46:09;;;;;;;5.53;4.13;;;29.30;79.80;;;;;;5079565;28;20175;-88
2023/08/16 09:48:35;;;;;;;8.80;5.43;;;29.60;78.70;;;;;;5058752;28;20216;-88
2023/08/16 09:51:03;;;;;;;5.75;4.10;;;29.70;77.40;;;;;;5041821;28;20179;-88
2023/08/16 09:53:30;;;;;;;5.70;4.07;;;29.80;75.80;;;;;;5057816;28;20211;-88
2023/08/16 09:55:59;;;;;;;5.05;3.80;;;30.10;72.80;;;;;;5075753;28;20651;-89
2023/08/16 09:58:29;;;;;;;7.95;4.05;;;30.30;73.30;;;;;;5061655;28;20182;-89
2023/08/16 10:00:55;;;;;;;11.15;4.28;;;30.50;69.70;;;;;;5081283;28;20163;-89
2023/08/16 10:03:22;;;;;;;6.13;4.40;;;30.70;69.60;;;;;;5099186;28;20227;-89
2023/08/16 10:05:49;;;;;;;8.73;4.03;;;30.90;68.80;;;;;;5082180;28;20167;-91
2023/08/16 10:08:16;;;;;;;5.22;4.20;;;31.20;68.00;;;;;;5060804;28;20180;-86
2023/08/16 10:10:43;;;;;;;5.53;3.90;;;31.50;66.40;;;;;;5041630;28;20185;-87
2023/08/16 10:13:09;;;;;;;5.25;3.65;;;31.50;67.00;;;;;;5076317;28;20667;-89
2023/08/16 10:15:37;;;;;;;7.13;3.35;;;31.60;63.00;;;;;;5041354;28;20206;-88
2023/08/16 10:18:09;;;;;;;6.07;3.63;;;31.80;62.40;;;;;;5040855;28;20231;-88
2023/08/16 10:20:36;;;;;;;4.20;3.20;;;32.10;62.50;;;;;;5074592;28;20627;-89
2023/08/16 10:23:03;;;;;;;6.35;3.47;;;32.30;60.50;;;;;;5057882;28;20252;-88
2023/08/16 10:25:44;;;;;;;4.35;3.72;;;32.20;56.20;;;;;;5057494;28;20245;-89
2023/08/16 10:28:10;;;;;;;4.53;3.20;;;32.20;58.40;;;;;;5057760;28;20271;-88
2023/08/16 10:30:38;;;;;;;4.70;3.25;;;32.30;56.70;;;;;;5057532;28;20209;-88
2023/08/16 10:33:12;;;;;;;6.97;3.60;;;32.30;55.60;;;;;;5057202;28;20219;-88
2023/08/16 10:35:39;;;;;;;4.43;3.22;;;32.50;56.10;;;;;;5057523;28;20178;-87
2023/08/16 10:38:05;;;;;;;3.53;3.00;;;32.60;53.50;;;;;;5057934;28;20628;-86
2023/08/16 10:40:31;;;;;;;5.93;3.25;;;32.80;57.10;;;;;;5077028;28;20181;-89
2023/08/16 10:43:05;;;;;;;5.38;3.30;;;33.00;54.20;;;;;;5045484;28;20187;-87
2023/08/16 10:45:35;;;;;;;4.60;3.53;;;33.10;52.40;;;;;;5085220;28;20233;-88
2023/08/16 10:48:14;;;;;;;4.43;2.85;;;33.30;53.20;;;;;;5064961;28;20190;-87
2023/08/16 10:50:41;;;;;;;4.03;3.10;;;33.30;49.90;;;;;;5087178;28;20151;-91
2023/08/16 10:53:08;;;;;;;7.97;5.55;;;33.00;48.70;;;;;;5080816;28;20221;-87
2023/08/16 10:55:34;;;;;;;10.85;6.07;;;33.00;51.20;;;;;;5089515;28;20199;-89
2023/08/16 10:58:00;;;;;;;6.53;4.00;;;33.20;57.90;;;;;;5057697;28;20187;-86
2023/08/16 11:00:34;;;;;;;4.45;3.20;;;33.00;52.10;;;;;;5075059;28;20201;-87
2023/08/16 11:03:04;;;;;;;3.88;3.30;;;33.10;50.20;;;;;;5075598;28;20201;-88
2023/08/16 11:05:34;;;;;;;5.57;4.22;;;33.10;50.80;;;;;;5074297;28;20159;-87
2023/08/16 11:08:09;;;;;;;10.05;7.15;;;33.30;51.30;;;;;;5074497;28;20190;-88
2023/08/16 11:10:36;;;;;;;5.95;3.22;;;33.50;51.70;;;;;;5056643;28;20179;-87
2023/08/16 11:13:10;;;;;;;3.90;3.13;;;33.70;49.70;;;;;;5074314;28;20195;-87
2023/08/16 11:15:36;;;;;;;6.95;3.40;;;33.80;47.30;;;;;;5074885;28;20250;-87
2023/08/16 11:18:03;;;;;;;4.60;3.70;;;33.90;51.00;;;;;;5074648;28;20300;-88
2023/08/16 11:20:29;;;;;;;7.25;2.97;;;33.60;49.50;;;;;;5039842;28;20680;-86
2023/08/16 11:22:57;;;;;;;5.53;3.67;;;33.60;50.00;;;;;;5074316;28;20191;-86
2023/08/16 11:25:23;;;;;;;5.28;3.80;;;33.50;50.70;;;;;;5073980;28;20201;-87
2023/08/16 11:27:50;;;;;;;7.65;3.63;;;;;;;;;;5073881;28;20187;-87
2023/08/16 11:30:16;;;;;;;6.45;3.55;;;33.40;50.30;;;;;;5074032;28;20232;-88
2023/08/16 11:32:42;;;;;;;6.85;3.30;;;33.50;50.90;;;;;;5039682;28;20611;-89
2023/08/16 11:35:09;;;;;;;5.65;4.30;;;33.40;47.20;;;;;;5056600;28;20175;-87
2023/08/16 11:37:36;;;;;;;5.03;4.30;;;33.20;49.30;;;;;;5077798;28;20254;-87
2023/08/16 11:40:07;;;;;;;4.60;3.90;;;33.10;49.80;;;;;;5074857;28;20182;-88
2023/08/16 11:42:33;;;;;;;6.93;4.35;;;33.20;51.20;;;;;;5065230;28;20230;-87
2023/08/16 11:44:59;;;;;;;4.25;3.38;;;33.30;52.20;;;;;;5089582;28;20182;-87
2023/08/16 11:47:25;;;;;;;6.20;3.70;;;33.40;50.40;;;;;;5087173;28;20648;-87
2023/08/16 11:49:51;;;;;;;8.40;3.70;;;33.50;49.80;;;;;;5058927;28;20179;-88
2023/08/16 11:52:24;;;;;;;10.43;4.32;;;33.60;48.00;;;;;;5074526;28;20228;-88
2023/08/16 11:55:07;;;;;;;5.05;3.55;;;33.60;49.60;;;;;;5056781;28;20178;-88
2023/08/16 11:57:42;;;;;;;4.32;3.08;;;33.60;49.60;;;;;;5073411;28;20171;-89
2023/08/16 12:00:08;;;;;;;7.53;3.45;;;33.60;50.00;;;;;;5073802;28;20166;-88
2023/08/16 12:02:36;;;;;;;4.13;3.55;;;33.60;48.00;;;;;;5073829;28;20185;-88
2023/08/16 12:05:09;;;;;;;5.93;4.20;;;33.80;50.50;;;;;;5055653;28;20305;-87
2023/08/16 12:07:49;;;;;;;3.83;3.17;;;34.00;48.30;;;;;;5074105;28;20208;-88
2023/08/16 12:10:22;;;;;;;8.55;3.00;;;34.20;48.30;;;;;;5055513;28;20225;-87
2023/08/16 12:12:49;;;;;;;6.07;3.67;;;34.40;47.20;;;;;;5055838;28;20268;-89
2023/08/16 12:15:14;;;;;;;5.05;3.65;;;34.40;46.20;;;;;;5056108;28;20246;-89
2023/08/16 12:17:40;;;;;;;8.90;3.63;;;34.50;47.30;;;;;;5073127;28;20686;-88
2023/08/16 12:20:06;;;;;;;6.47;4.45;;;34.30;45.70;;;;;;5072964;28;20179;-87
2023/08/16 12:22:33;;;;;;;4.20;3.70;;;34.10;47.00;;;;;;5055219;28;20555;-88
2023/08/16 12:24:59;;;;;;;6.80;3.90;;;33.80;49.10;;;;;;5072926;28;20265;-87
2023/08/16 12:27:24;;;;;;;6.68;3.95;;;33.90;48.20;;;;;;5055899;28;20257;-86
2023/08/16 12:29:50;;;;;;;4.22;3.72;;;34.00;48.00;;;;;;5038641;28;20186;-87
2023/08/16 12:32:15;;;;;;;4.72;3.70;;;34.20;49.90;;;;;;5038429;28;20190;-89
2023/08/16 12:34:41;;;;;;;5.80;3.63;;;34.30;48.70;;;;;;5073166;28;20204;-87
2023/08/16 12:37:07;;;;;;;6.05;4.20;;;34.50;47.40;;;;;;5022164;28;20218;-88
2023/08/16 12:39:32;;;;;;;6.10;4.00;;;34.60;46.80;;;;;;5055132;28;20258;-88
2023/08/16 12:41:58;;;;;;;9.52;3.63;;;;;;;;;;5072565;28;20183;-89
2023/08/16 12:44:24;;;;;;;4.00;3.53;;;34.80;44.40;;;;;;5076039;28;20232;-88
2023/08/16 12:46:50;;;;;;;4.05;3.45;;;34.30;44.20;;;;;;5058714;28;20655;-88
2023/08/16 12:49:16;;;;;;;9.18;4.00;;;34.40;46.00;;;;;;5042911;28;20178;-88
2023/08/16 12:51:43;;;;;;;5.80;4.35;;;34.70;49.60;;;;;;5044199;28;20257;-87
2023/08/16 12:54:09;;;;;;;5.93;3.80;;;34.80;45.90;;;;;;5059390;28;20226;-86